sensor_id;sensor_type;location;lat;lon;timestamp;P1;durP1;ratioP1;P2;durP2;ratioP2
74471;SDS011;62920;53.572;10.050;2023-10-19T00:01:14;11.35;;;5.07;;
74471;SDS011;62920;53.572;10.050;2023-10-19T00:03:43;9.52;;;3.92;;
74471;SDS011;62920;53.572;10.050;2023-10-19T00:06:09;8.77;;;3.92;;
74471;SDS011;62920;53.572;10.050;2023-10-19T00:08:35;9.20;;;4.82;;
74471;SDS011;62920;53.572;10.050;2023-10-19T00:11:07;6.10;;;3.08;;
74471;SDS011;62920;53.572;10.050;2023-10-19T00:13:34;6.32;;;3.50;;
74471;SDS011;62920;53.572;10.050;2023-10-19T00:16:08;6.38;;;3.40;;
74471;SDS011;62920;53.572;10.050;2023-10-19T00:18:47;3.97;;;2.22;;
74471;SDS011;62920;53.572;10.050;2023-10-19T00:21:13;9.30;;;4.75;;
74471;SDS011;62920;53.572;10.050;2023-10-19T00:23:45;8.52;;;3.85;;
74471;SDS011;62920;53.572;10.050;2023-10-19T00:26:13;10.52;;;5.32;;
74471;SDS011;62920;53.572;10.050;2023-10-19T00:28:45;5.47;;;2.63;;
74471;SDS011;62920;53.572;10.050;2023-10-19T00:31:13;7.20;;;3.83;;
74471;SDS011;62920;53.572;10.050;2023-10-19T00:33:39;7.75;;;3.97;;
74471;SDS011;62920;53.572;10.050;2023-10-19T00:36:05;10.30;;;4.93;;
74471;SDS011;62920;53.572;10.050;2023-10-19T00:38:35;11.43;;;5.32;;
74471;SDS011;62920;53.572;10.050;2023-10-19T00:41:00;8.38;;;3.85;;
74471;SDS011;62920;53.572;10.050;2023-10-19T00:43:36;8.68;;;4.30;;
74471;SDS011;62920;53.572;10.050;2023-10-19T00:46:17;5.10;;;2.72;;
74471;SDS011;62920;53.572;10.050;2023-10-19T00:51:20;7.47;;;3.83;;
74471;SDS011;62920;53.572;10.050;2023-10-19T00:53:55;10.23;;;3.90;;
74471;SDS011;62920;53.572;10.050;2023-10-19T00:56:23;8.77;;;4.88;;
74471;SDS011;62920;53.572;10.050;2023-10-19T00:58:52;9.23;;;4.80;;
74471;SDS011;62920;53.572;10.050;2023-10-19T01:01:23;13.40;;;5.22;;
74471;SDS011;62920;53.572;10.050;2023-10-19T01:03:53;10.45;;;5.53;;
74471;SDS011;62920;53.572;10.050;2023-10-19T01:06:24;8.30;;;4.40;;
74471;SDS011;62920;53.572;10.050;2023-10-19T01:08:50;10.35;;;4.95;;
74471;SDS011;62920;53.572;10.050;2023-10-19T01:11:20;6.80;;;3.47;;
74471;SDS011;62920;53.572;10.050;2023-10-19T01:13:49;10.02;;;5.10;;
74471;SDS011;62920;53.572;10.050;2023-10-19T01:16:16;9.13;;;4.40;;
74471;SDS011;62920;53.572;10.050;2023-10-19T01:18:52;7.80;;;3.92;;
74471;SDS011;62920;53.572;10.050;2023-10-19T01:21:23;10.80;;;5.20;;
74471;SDS011;62920;53.572;10.050;2023-10-19T01:24:11;7.30;;;4.03;;
74471;SDS011;62920;53.572;10.050;2023-10-19T01:26:37;9.95;;;5.28;;
74471;SDS011;62920;53.572;10.050;2023-10-19T01:29:03;8.45;;;4.03;;
74471;SDS011;62920;53.572;10.050;2023-10-19T01:31:49;10.93;;;5.10;;
74471;SDS011;62920;53.572;10.050;2023-10-19T01:34:32;15.20;;;4.88;;
74471;SDS011;62920;53.572;10.050;2023-10-19T01:37:02;10.48;;;5.25;;
74471;SDS011;62920;53.572;10.050;2023-10-19T01:41:57;9.48;;;4.45;;
74471;SDS011;62920;53.572;10.050;2023-10-19T01:44:23;9.52;;;4.85;;
74471;SDS011;62920;53.572;10.050;2023-10-19T01:46:50;4.63;;;2.65;;
74471;SDS011;62920;53.572;10.050;2023-10-19T01:49:15;8.45;;;4.10;;
74471;SDS011;62920;53.572;10.050;2023-10-19T01:51:51;8.05;;;4.20;;
74471;SDS011;62920;53.572;10.050;2023-10-19T01:54:17;9.45;;;4.63;;
74471;SDS011;62920;53.572;10.050;2023-10-19T01:56:43;7.90;;;3.97;;
74471;SDS011;62920;53.572;10.050;2023-10-19T01:59:09;10.13;;;4.97;;
74471;SDS011;62920;53.572;10.050;2023-10-19T02:01:34;8.10;;;3.72;;
74471;SDS011;62920;53.572;10.050;2023-10-19T02:04:03;10.93;;;3.67;;
74471;SDS011;62920;53.572;10.050;2023-10-19T02:06:32;7.53;;;3.00;;
74471;SDS011;62920;53.572;10.050;2023-10-19T02:09:01;9.55;;;4.72;;
74471;SDS011;62920;53.572;10.050;2023-10-19T02:11:34;16.13;;;5.22;;
74471;SDS011;62920;53.572;10.050;2023-10-19T02:14:03;9.55;;;5.05;;
74471;SDS011;62920;53.572;10.050;2023-10-19T02:16:33;10.02;;;4.28;;
74471;SDS011;62920;53.572;10.050;2023-10-19T02:19:01;6.72;;;3.15;;
74471;SDS011;62920;53.572;10.050;2023-10-19T02:21:27;9.43;;;4.75;;
74471;SDS011;62920;53.572;10.050;2023-10-19T02:23:55;11.52;;;4.05;;
74471;SDS011;62920;53.572;10.050;2023-10-19T02:26:22;6.68;;;3.08;;
74471;SDS011;62920;53.572;10.050;2023-10-19T02:28:50;8.32;;;4.30;;
74471;SDS011;62920;53.572;10.050;2023-10-19T02:31:16;9.25;;;4.20;;
74471;SDS011;62920;53.572;10.050;2023-10-19T02:33:50;9.60;;;5.40;;
74471;SDS011;62920;53.572;10.050;2023-10-19T02:36:29;9.40;;;4.43;;
74471;SDS011;62920;53.572;10.050;2023-10-19T02:38:56;7.93;;;3.70;;
74471;SDS011;62920;53.572;10.050;2023-10-19T02:41:25;12.50;;;5.72;;
74471;SDS011;62920;53.572;10.050;2023-10-19T02:43:52;10.38;;;4.88;;
74471;SDS011;62920;53.572;10.050;2023-10-19T02:46:30;9.18;;;4.05;;
74471;SDS011;62920;53.572;10.050;2023-10-19T02:49:02;10.93;;;4.43;;
74471;SDS011;62920;53.572;10.050;2023-10-19T02:51:28;10.57;;;5.63;;
74471;SDS011;62920;53.572;10.050;2023-10-19T02:53:55;11.82;;;4.68;;
74471;SDS011;62920;53.572;10.050;2023-10-19T02:56:20;9.65;;;5.22;;
74471;SDS011;62920;53.572;10.050;2023-10-19T02:58:48;10.07;;;5.15;;
74471;SDS011;62920;53.572;10.050;2023-10-19T03:01:18;8.48;;;3.97;;
74471;SDS011;62920;53.572;10.050;2023-10-19T03:03:50;11.88;;;5.32;;
74471;SDS011;62920;53.572;10.050;2023-10-19T03:06:22;10.27;;;5.85;;
74471;SDS011;62920;53.572;10.050;2023-10-19T03:08:48;11.60;;;5.05;;
74471;SDS011;62920;53.572;10.050;2023-10-19T03:11:26;11.13;;;5.18;;
74471;SDS011;62920;53.572;10.050;2023-10-19T03:13:53;12.80;;;6.05;;
74471;SDS011;62920;53.572;10.050;2023-10-19T03:16:22;11.38;;;5.35;;
74471;SDS011;62920;53.572;10.050;2023-10-19T03:18:48;11.25;;;5.90;;
74471;SDS011;62920;53.572;10.050;2023-10-19T03:21:15;11.48;;;4.57;;
74471;SDS011;62920;53.572;10.050;2023-10-19T03:23:41;8.60;;;4.07;;
74471;SDS011;62920;53.572;10.050;2023-10-19T03:26:07;8.00;;;3.85;;
74471;SDS011;62920;53.572;10.050;2023-10-19T03:28:51;9.23;;;4.45;;
74471;SDS011;62920;53.572;10.050;2023-10-19T03:31:20;9.32;;;4.57;;
74471;SDS011;62920;53.572;10.050;2023-10-19T03:33:48;10.75;;;5.22;;
74471;SDS011;62920;53.572;10.050;2023-10-19T03:36:19;11.30;;;5.90;;
74471;SDS011;62920;53.572;10.050;2023-10-19T03:38:48;13.43;;;6.53;;
74471;SDS011;62920;53.572;10.050;2023-10-19T03:41:16;11.23;;;4.90;;
74471;SDS011;62920;53.572;10.050;2023-10-19T03:43:46;14.82;;;6.53;;
74471;SDS011;62920;53.572;10.050;2023-10-19T03:46:11;14.60;;;5.28;;
74471;SDS011;62920;53.572;10.050;2023-10-19T03:48:47;16.50;;;7.45;;
74471;SDS011;62920;53.572;10.050;2023-10-19T03:51:12;16.58;;;7.75;;
74471;SDS011;62920;53.572;10.050;2023-10-19T03:53:39;17.05;;;8.20;;
74471;SDS011;62920;53.572;10.050;2023-10-19T03:56:08;11.50;;;5.32;;
74471;SDS011;62920;53.572;10.050;2023-10-19T03:58:36;18.88;;;8.82;;
74471;SDS011;62920;53.572;10.050;2023-10-19T04:01:03;14.75;;;6.60;;
74471;SDS011;62920;53.572;10.050;2023-10-19T04:03:30;13.10;;;5.88;;
74471;SDS011;62920;53.572;10.050;2023-10-19T04:05:56;13.20;;;5.47;;
74471;SDS011;62920;53.572;10.050;2023-10-19T04:08:22;9.35;;;4.93;;
74471;SDS011;62920;53.572;10.050;2023-10-19T04:10:51;10.48;;;5.10;;
74471;SDS011;62920;53.572;10.050;2023-10-19T04:13:35;17.13;;;8.55;;
74471;SDS011;62920;53.572;10.050;2023-10-19T04:16:03;18.88;;;6.72;;
74471;SDS011;62920;53.572;10.050;2023-10-19T04:18:29;12.73;;;6.40;;
74471;SDS011;62920;53.572;10.050;2023-10-19T04:20:54;16.48;;;7.65;;
74471;SDS011;62920;53.572;10.050;2023-10-19T04:23:23;12.43;;;6.68;;
74471;SDS011;62920;53.572;10.050;2023-10-19T04:25:59;8.82;;;3.67;;
74471;SDS011;62920;53.572;10.050;2023-10-19T04:28:29;22.48;;;9.07;;
74471;SDS011;62920;53.572;10.050;2023-10-19T04:30:56;19.50;;;7.75;;
74471;SDS011;62920;53.572;10.050;2023-10-19T04:33:27;14.02;;;7.57;;
74471;SDS011;62920;53.572;10.050;2023-10-19T04:35:53;20.27;;;9.43;;
74471;SDS011;62920;53.572;10.050;2023-10-19T04:38:21;20.58;;;8.43;;
74471;SDS011;62920;53.572;10.050;2023-10-19T04:40:47;16.23;;;7.15;;
74471;SDS011;62920;53.572;10.050;2023-10-19T04:43:13;23.40;;;9.15;;
74471;SDS011;62920;53.572;10.050;2023-10-19T04:45:41;19.63;;;9.70;;
74471;SDS011;62920;53.572;10.050;2023-10-19T04:48:07;16.13;;;7.57;;
74471;SDS011;62920;53.572;10.050;2023-10-19T04:50:32;24.85;;;10.27;;
74471;SDS011;62920;53.572;10.050;2023-10-19T04:52:58;9.98;;;5.85;;
74471;SDS011;62920;53.572;10.050;2023-10-19T04:55:23;16.15;;;7.65;;
74471;SDS011;62920;53.572;10.050;2023-10-19T04:57:49;10.52;;;4.93;;
74471;SDS011;62920;53.572;10.050;2023-10-19T05:00:14;19.92;;;9.15;;
74471;SDS011;62920;53.572;10.050;2023-10-19T05:02:40;22.52;;;10.20;;
74471;SDS011;62920;53.572;10.050;2023-10-19T05:05:06;15.27;;;6.82;;
74471;SDS011;62920;53.572;10.050;2023-10-19T05:07:32;17.13;;;7.72;;
74471;SDS011;62920;53.572;10.050;2023-10-19T05:09:58;18.17;;;8.63;;
74471;SDS011;62920;53.572;10.050;2023-10-19T05:12:24;26.13;;;11.95;;
74471;SDS011;62920;53.572;10.050;2023-10-19T05:14:49;23.85;;;10.73;;
74471;SDS011;62920;53.572;10.050;2023-10-19T05:17:15;17.85;;;8.00;;
74471;SDS011;62920;53.572;10.050;2023-10-19T05:19:40;18.35;;;8.50;;
74471;SDS011;62920;53.572;10.050;2023-10-19T05:22:06;23.80;;;10.65;;
74471;SDS011;62920;53.572;10.050;2023-10-19T05:24:33;10.25;;;5.22;;
74471;SDS011;62920;53.572;10.050;2023-10-19T05:26:59;21.95;;;9.25;;
74471;SDS011;62920;53.572;10.050;2023-10-19T05:29:24;17.25;;;6.63;;
74471;SDS011;62920;53.572;10.050;2023-10-19T05:31:50;16.90;;;7.28;;
74471;SDS011;62920;53.572;10.050;2023-10-19T05:34:21;21.80;;;9.30;;
74471;SDS011;62920;53.572;10.050;2023-10-19T05:36:47;17.38;;;9.27;;
74471;SDS011;62920;53.572;10.050;2023-10-19T05:39:17;21.60;;;10.15;;
74471;SDS011;62920;53.572;10.050;2023-10-19T05:41:43;20.45;;;8.65;;
74471;SDS011;62920;53.572;10.050;2023-10-19T05:44:08;10.23;;;5.32;;
74471;SDS011;62920;53.572;10.050;2023-10-19T05:46:34;18.92;;;9.18;;
74471;SDS011;62920;53.572;10.050;2023-10-19T05:48:59;19.77;;;9.40;;
74471;SDS011;62920;53.572;10.050;2023-10-19T05:51:28;20.20;;;10.07;;
74471;SDS011;62920;53.572;10.050;2023-10-19T05:53:54;21.60;;;9.85;;
74471;SDS011;62920;53.572;10.050;2023-10-19T05:56:26;22.20;;;10.80;;
74471;SDS011;62920;53.572;10.050;2023-10-19T05:58:52;21.55;;;10.13;;
74471;SDS011;62920;53.572;10.050;2023-10-19T06:01:18;17.20;;;8.07;;
74471;SDS011;62920;53.572;10.050;2023-10-19T06:03:44;23.85;;;9.90;;
74471;SDS011;62920;53.572;10.050;2023-10-19T06:06:10;20.85;;;10.00;;
74471;SDS011;62920;53.572;10.050;2023-10-19T06:08:35;17.00;;;7.47;;
74471;SDS011;62920;53.572;10.050;2023-10-19T06:11:01;23.48;;;9.65;;
74471;SDS011;62920;53.572;10.050;2023-10-19T06:13:26;18.92;;;7.53;;
74471;SDS011;62920;53.572;10.050;2023-10-19T06:15:51;20.67;;;7.80;;
74471;SDS011;62920;53.572;10.050;2023-10-19T06:18:17;21.17;;;9.70;;
74471;SDS011;62920;53.572;10.050;2023-10-19T06:20:43;17.13;;;6.32;;
74471;SDS011;62920;53.572;10.050;2023-10-19T06:23:09;23.58;;;9.75;;
74471;SDS011;62920;53.572;10.050;2023-10-19T06:25:36;16.02;;;7.78;;
74471;SDS011;62920;53.572;10.050;2023-10-19T06:28:02;25.75;;;11.25;;
74471;SDS011;62920;53.572;10.050;2023-10-19T06:30:28;17.27;;;7.00;;
74471;SDS011;62920;53.572;10.050;2023-10-19T06:32:54;15.13;;;6.40;;
74471;SDS011;62920;53.572;10.050;2023-10-19T06:35:22;11.73;;;5.78;;
74471;SDS011;62920;53.572;10.050;2023-10-19T06:37:48;24.75;;;10.45;;
74471;SDS011;62920;53.572;10.050;2023-10-19T06:40:14;18.40;;;8.57;;
74471;SDS011;62920;53.572;10.050;2023-10-19T06:42:42;17.58;;;8.90;;
74471;SDS011;62920;53.572;10.050;2023-10-19T06:45:13;14.57;;;7.82;;
74471;SDS011;62920;53.572;10.050;2023-10-19T06:47:42;18.58;;;8.57;;
74471;SDS011;62920;53.572;10.050;2023-10-19T06:50:09;14.20;;;6.63;;
74471;SDS011;62920;53.572;10.050;2023-10-19T06:52:39;24.33;;;10.95;;
74471;SDS011;62920;53.572;10.050;2023-10-19T06:55:05;17.92;;;6.75;;
74471;SDS011;62920;53.572;10.050;2023-10-19T06:57:38;17.98;;;7.72;;
74471;SDS011;62920;53.572;10.050;2023-10-19T07:00:04;19.13;;;8.68;;
74471;SDS011;62920;53.572;10.050;2023-10-19T07:02:39;18.50;;;8.18;;
74471;SDS011;62920;53.572;10.050;2023-10-19T07:05:06;13.18;;;6.00;;
74471;SDS011;62920;53.572;10.050;2023-10-19T07:07:35;13.73;;;7.30;;
74471;SDS011;62920;53.572;10.050;2023-10-19T07:10:01;15.38;;;7.68;;
74471;SDS011;62920;53.572;10.050;2023-10-19T07:12:28;20.58;;;10.73;;
74471;SDS011;62920;53.572;10.050;2023-10-19T07:14:54;20.92;;;8.43;;
74471;SDS011;62920;53.572;10.050;2023-10-19T07:17:19;14.35;;;6.75;;
74471;SDS011;62920;53.572;10.050;2023-10-19T07:19:44;21.50;;;9.32;;
74471;SDS011;62920;53.572;10.050;2023-10-19T07:22:13;13.73;;;6.75;;
74471;SDS011;62920;53.572;10.050;2023-10-19T07:24:40;11.25;;;5.85;;
74471;SDS011;62920;53.572;10.050;2023-10-19T07:27:05;17.58;;;8.43;;
74471;SDS011;62920;53.572;10.050;2023-10-19T07:29:33;16.50;;;7.18;;
74471;SDS011;62920;53.572;10.050;2023-10-19T07:32:01;18.88;;;10.27;;
74471;SDS011;62920;53.572;10.050;2023-10-19T07:34:30;14.70;;;8.10;;
74471;SDS011;62920;53.572;10.050;2023-10-19T07:36:58;20.13;;;8.18;;
74471;SDS011;62920;53.572;10.050;2023-10-19T07:39:24;24.75;;;9.38;;
74471;SDS011;62920;53.572;10.050;2023-10-19T07:41:51;13.77;;;6.65;;
74471;SDS011;62920;53.572;10.050;2023-10-19T07:44:18;20.15;;;8.82;;
74471;SDS011;62920;53.572;10.050;2023-10-19T07:46:43;23.55;;;11.25;;
74471;SDS011;62920;53.572;10.050;2023-10-19T07:49:09;24.23;;;10.55;;
74471;SDS011;62920;53.572;10.050;2023-10-19T07:51:39;24.60;;;10.43;;
74471;SDS011;62920;53.572;10.050;2023-10-19T07:54:06;13.95;;;7.18;;
74471;SDS011;62920;53.572;10.050;2023-10-19T07:56:32;11.25;;;5.63;;
74471;SDS011;62920;53.572;10.050;2023-10-19T07:58:59;19.40;;;9.27;;
74471;SDS011;62920;53.572;10.050;2023-10-19T08:01:24;16.08;;;8.52;;
74471;SDS011;62920;53.572;10.050;2023-10-19T08:03:50;15.45;;;6.38;;
74471;SDS011;62920;53.572;10.050;2023-10-19T08:06:16;20.67;;;9.88;;
74471;SDS011;62920;53.572;10.050;2023-10-19T08:08:42;18.88;;;10.38;;
74471;SDS011;62920;53.572;10.050;2023-10-19T08:11:07;21.30;;;10.63;;
74471;SDS011;62920;53.572;10.050;2023-10-19T08:13:33;14.50;;;6.15;;
74471;SDS011;62920;53.572;10.050;2023-10-19T08:15:59;22.90;;;9.18;;
74471;SDS011;62920;53.572;10.050;2023-10-19T08:18:24;15.57;;;8.23;;
74471;SDS011;62920;53.572;10.050;2023-10-19T08:20:49;21.63;;;10.85;;
74471;SDS011;62920;53.572;10.050;2023-10-19T08:23:15;14.40;;;7.47;;
74471;SDS011;62920;53.572;10.050;2023-10-19T08:25:43;23.80;;;10.88;;
74471;SDS011;62920;53.572;10.050;2023-10-19T08:28:11;20.95;;;9.27;;
74471;SDS011;62920;53.572;10.050;2023-10-19T08:30:37;16.75;;;7.57;;
74471;SDS011;62920;53.572;10.050;2023-10-19T08:33:02;18.48;;;8.48;;
74471;SDS011;62920;53.572;10.050;2023-10-19T08:35:29;18.27;;;9.27;;
74471;SDS011;62920;53.572;10.050;2023-10-19T08:40:24;16.02;;;8.45;;
74471;SDS011;62920;53.572;10.050;2023-10-19T08:42:51;11.20;;;5.55;;
74471;SDS011;62920;53.572;10.050;2023-10-19T08:45:18;15.30;;;8.00;;
74471;SDS011;62920;53.572;10.050;2023-10-19T08:50:21;19.60;;;9.60;;
74471;SDS011;62920;53.572;10.050;2023-10-19T08:52:49;24.60;;;11.68;;
74471;SDS011;62920;53.572;10.050;2023-10-19T08:55:17;21.85;;;10.15;;
74471;SDS011;62920;53.572;10.050;2023-10-19T08:57:43;21.48;;;8.93;;
74471;SDS011;62920;53.572;10.050;2023-10-19T09:00:08;17.17;;;7.82;;
74471;SDS011;62920;53.572;10.050;2023-10-19T09:02:34;24.73;;;12.50;;
74471;SDS011;62920;53.572;10.050;2023-10-19T09:05:05;26.73;;;9.75;;
74471;SDS011;62920;53.572;10.050;2023-10-19T09:07:31;28.42;;;11.90;;
74471;SDS011;62920;53.572;10.050;2023-10-19T09:09:59;25.23;;;11.27;;
74471;SDS011;62920;53.572;10.050;2023-10-19T09:12:26;13.52;;;7.10;;
74471;SDS011;62920;53.572;10.050;2023-10-19T09:14:52;27.23;;;12.95;;
74471;SDS011;62920;53.572;10.050;2023-10-19T09:17:22;19.77;;;8.32;;
74471;SDS011;62920;53.572;10.050;2023-10-19T09:19:53;29.70;;;13.27;;
74471;SDS011;62920;53.572;10.050;2023-10-19T09:22:19;18.45;;;8.50;;
74471;SDS011;62920;53.572;10.050;2023-10-19T09:24:51;24.92;;;10.48;;
74471;SDS011;62920;53.572;10.050;2023-10-19T09:27:21;16.83;;;8.35;;
74471;SDS011;62920;53.572;10.050;2023-10-19T09:29:49;25.10;;;11.00;;
74471;SDS011;62920;53.572;10.050;2023-10-19T09:32:17;23.63;;;11.55;;
74471;SDS011;62920;53.572;10.050;2023-10-19T09:34:44;19.17;;;10.23;;
74471;SDS011;62920;53.572;10.050;2023-10-19T09:37:10;15.93;;;7.60;;
74471;SDS011;62920;53.572;10.050;2023-10-19T09:39:36;15.88;;;7.82;;
74471;SDS011;62920;53.572;10.050;2023-10-19T09:42:02;27.02;;;12.27;;
74471;SDS011;62920;53.572;10.050;2023-10-19T09:44:37;22.25;;;11.57;;
74471;SDS011;62920;53.572;10.050;2023-10-19T09:47:09;13.55;;;7.45;;
74471;SDS011;62920;53.572;10.050;2023-10-19T09:49:40;20.50;;;9.57;;
74471;SDS011;62920;53.572;10.050;2023-10-19T09:52:07;27.67;;;12.82;;
74471;SDS011;62920;53.572;10.050;2023-10-19T09:57:59;23.42;;;12.15;;
74471;SDS011;62920;53.572;10.050;2023-10-19T10:00:27;22.52;;;9.73;;
74471;SDS011;62920;53.572;10.050;2023-10-19T10:02:57;22.40;;;11.27;;
74471;SDS011;62920;53.572;10.050;2023-10-19T10:10:44;16.50;;;7.22;;
74471;SDS011;62920;53.572;10.050;2023-10-19T10:18:17;29.73;;;11.75;;
74471;SDS011;62920;53.572;10.050;2023-10-19T10:20:43;16.75;;;8.57;;
74471;SDS011;62920;53.572;10.050;2023-10-19T10:23:15;22.73;;;10.80;;
74471;SDS011;62920;53.572;10.050;2023-10-19T10:25:42;17.02;;;8.77;;
74471;SDS011;62920;53.572;10.050;2023-10-19T10:28:13;23.55;;;10.93;;
74471;SDS011;62920;53.572;10.050;2023-10-19T10:31:06;21.90;;;11.27;;
74471;SDS011;62920;53.572;10.050;2023-10-19T10:33:51;15.77;;;8.43;;
74471;SDS011;62920;53.572;10.050;2023-10-19T10:36:19;24.77;;;12.15;;
74471;SDS011;62920;53.572;10.050;2023-10-19T10:38:46;10.70;;;5.93;;
74471;SDS011;62920;53.572;10.050;2023-10-19T10:41:24;19.05;;;10.55;;
74471;SDS011;62920;53.572;10.050;2023-10-19T10:43:56;9.65;;;5.32;;
74471;SDS011;62920;53.572;10.050;2023-10-19T10:46:23;16.65;;;7.47;;
74471;SDS011;62920;53.572;10.050;2023-10-19T10:48:53;16.50;;;8.88;;
74471;SDS011;62920;53.572;10.050;2023-10-19T10:51:19;24.45;;;11.60;;
74471;SDS011;62920;53.572;10.050;2023-10-19T10:53:50;20.05;;;10.50;;
74471;SDS011;62920;53.572;10.050;2023-10-19T10:56:16;23.80;;;11.82;;
74471;SDS011;62920;53.572;10.050;2023-10-19T10:58:42;17.63;;;8.10;;
74471;SDS011;62920;53.572;10.050;2023-10-19T11:01:08;19.92;;;10.38;;
74471;SDS011;62920;53.572;10.050;2023-10-19T11:03:35;21.55;;;11.20;;
74471;SDS011;62920;53.572;10.050;2023-10-19T11:06:06;24.38;;;11.13;;
74471;SDS011;62920;53.572;10.050;2023-10-19T11:08:33;22.75;;;11.00;;
74471;SDS011;62920;53.572;10.050;2023-10-19T11:11:06;21.60;;;10.73;;
74471;SDS011;62920;53.572;10.050;2023-10-19T11:13:35;12.07;;;7.20;;
74471;SDS011;62920;53.572;10.050;2023-10-19T11:16:03;22.95;;;11.52;;
74471;SDS011;62920;53.572;10.050;2023-10-19T11:18:38;20.85;;;11.02;;
74471;SDS011;62920;53.572;10.050;2023-10-19T11:21:11;19.13;;;9.77;;
74471;SDS011;62920;53.572;10.050;2023-10-19T11:23:38;24.05;;;12.75;;
74471;SDS011;62920;53.572;10.050;2023-10-19T11:26:04;28.95;;;13.18;;
74471;SDS011;62920;53.572;10.050;2023-10-19T11:28:33;21.40;;;9.85;;
74471;SDS011;62920;53.572;10.050;2023-10-19T11:31:15;17.55;;;7.22;;
74471;SDS011;62920;53.572;10.050;2023-10-19T11:33:41;14.27;;;7.57;;
74471;SDS011;62920;53.572;10.050;2023-10-19T11:36:08;18.55;;;8.27;;
74471;SDS011;62920;53.572;10.050;2023-10-19T11:38:33;24.30;;;11.77;;
74471;SDS011;62920;53.572;10.050;2023-10-19T11:40:58;23.40;;;11.90;;
74471;SDS011;62920;53.572;10.050;2023-10-19T11:43:24;22.55;;;11.10;;
74471;SDS011;62920;53.572;10.050;2023-10-19T11:45:49;26.45;;;12.93;;
74471;SDS011;62920;53.572;10.050;2023-10-19T11:48:15;24.08;;;11.65;;
74471;SDS011;62920;53.572;10.050;2023-10-19T11:50:41;23.25;;;11.73;;
74471;SDS011;62920;53.572;10.050;2023-10-19T11:53:06;20.40;;;10.65;;
74471;SDS011;62920;53.572;10.050;2023-10-19T11:55:32;22.42;;;11.65;;
74471;SDS011;62920;53.572;10.050;2023-10-19T11:57:58;20.50;;;10.52;;
74471;SDS011;62920;53.572;10.050;2023-10-19T12:00:23;15.77;;;8.15;;
74471;SDS011;62920;53.572;10.050;2023-10-19T12:02:58;22.17;;;11.38;;
74471;SDS011;62920;53.572;10.050;2023-10-19T12:05:23;18.05;;;9.13;;
74471;SDS011;62920;53.572;10.050;2023-10-19T12:07:49;16.95;;;7.82;;
74471;SDS011;62920;53.572;10.050;2023-10-19T12:10:17;18.65;;;8.60;;
74471;SDS011;62920;53.572;10.050;2023-10-19T12:12:45;20.60;;;10.63;;
74471;SDS011;62920;53.572;10.050;2023-10-19T12:15:10;13.43;;;7.75;;
74471;SDS011;62920;53.572;10.050;2023-10-19T12:17:37;8.50;;;5.65;;
74471;SDS011;62920;53.572;10.050;2023-10-19T12:20:03;21.80;;;10.38;;
74471;SDS011;62920;53.572;10.050;2023-10-19T12:22:31;23.65;;;11.18;;
74471;SDS011;62920;53.572;10.050;2023-10-19T12:25:01;20.65;;;11.13;;
74471;SDS011;62920;53.572;10.050;2023-10-19T12:27:27;23.13;;;10.60;;
74471;SDS011;62920;53.572;10.050;2023-10-19T12:29:53;17.02;;;9.02;;
74471;SDS011;62920;53.572;10.050;2023-10-19T12:32:19;21.45;;;11.00;;
74471;SDS011;62920;53.572;10.050;2023-10-19T12:34:44;21.42;;;9.43;;
74471;SDS011;62920;53.572;10.050;2023-10-19T12:37:10;23.33;;;10.93;;
74471;SDS011;62920;53.572;10.050;2023-10-19T12:39:37;15.02;;;8.63;;
74471;SDS011;62920;53.572;10.050;2023-10-19T12:42:16;25.20;;;10.48;;
74471;SDS011;62920;53.572;10.050;2023-10-19T12:44:41;16.83;;;8.90;;
74471;SDS011;62920;53.572;10.050;2023-10-19T12:47:08;16.05;;;8.70;;
74471;SDS011;62920;53.572;10.050;2023-10-19T12:52:07;10.55;;;5.68;;
74471;SDS011;62920;53.572;10.050;2023-10-19T12:54:33;12.50;;;7.55;;
74471;SDS011;62920;53.572;10.050;2023-10-19T12:57:05;19.88;;;10.80;;
74471;SDS011;62920;53.572;10.050;2023-10-19T12:59:33;19.90;;;11.35;;
74471;SDS011;62920;53.572;10.050;2023-10-19T13:04:28;15.82;;;8.38;;
74471;SDS011;62920;53.572;10.050;2023-10-19T13:06:55;27.13;;;12.20;;
74471;SDS011;62920;53.572;10.050;2023-10-19T13:09:23;18.95;;;9.93;;
74471;SDS011;62920;53.572;10.050;2023-10-19T13:11:58;15.57;;;7.22;;
74471;SDS011;62920;53.572;10.050;2023-10-19T13:14:24;21.08;;;10.88;;
74471;SDS011;62920;53.572;10.050;2023-10-19T13:16:50;16.38;;;8.65;;
74471;SDS011;62920;53.572;10.050;2023-10-19T13:19:17;15.40;;;8.88;;
74471;SDS011;62920;53.572;10.050;2023-10-19T13:21:45;13.73;;;7.30;;
74471;SDS011;62920;53.572;10.050;2023-10-19T13:24:14;16.50;;;8.48;;
74471;SDS011;62920;53.572;10.050;2023-10-19T13:26:40;18.27;;;8.18;;
74471;SDS011;62920;53.572;10.050;2023-10-19T13:29:07;15.38;;;7.88;;
74471;SDS011;62920;53.572;10.050;2023-10-19T13:31:32;14.80;;;6.63;;
74471;SDS011;62920;53.572;10.050;2023-10-19T13:33:57;14.63;;;7.38;;
74471;SDS011;62920;53.572;10.050;2023-10-19T13:36:24;20.00;;;9.52;;
74471;SDS011;62920;53.572;10.050;2023-10-19T13:38:50;16.35;;;8.10;;
74471;SDS011;62920;53.572;10.050;2023-10-19T13:41:15;8.65;;;5.15;;
74471;SDS011;62920;53.572;10.050;2023-10-19T13:43:42;11.60;;;6.88;;
74471;SDS011;62920;53.572;10.050;2023-10-19T13:46:07;10.50;;;5.68;;
74471;SDS011;62920;53.572;10.050;2023-10-19T13:48:32;10.02;;;5.57;;
74471;SDS011;62920;53.572;10.050;2023-10-19T13:50:58;19.60;;;10.07;;
74471;SDS011;62920;53.572;10.050;2023-10-19T13:53:37;19.30;;;8.90;;
74471;SDS011;62920;53.572;10.050;2023-10-19T13:56:02;19.30;;;10.48;;
74471;SDS011;62920;53.572;10.050;2023-10-19T13:58:32;20.08;;;9.98;;
74471;SDS011;62920;53.572;10.050;2023-10-19T14:00:58;20.52;;;10.02;;
74471;SDS011;62920;53.572;10.050;2023-10-19T14:03:23;17.35;;;7.78;;
74471;SDS011;62920;53.572;10.050;2023-10-19T14:05:49;21.23;;;10.32;;
74471;SDS011;62920;53.572;10.050;2023-10-19T14:08:16;13.13;;;7.05;;
74471;SDS011;62920;53.572;10.050;2023-10-19T14:13:07;22.10;;;8.73;;
74471;SDS011;62920;53.572;10.050;2023-10-19T14:15:33;19.15;;;8.50;;
74471;SDS011;62920;53.572;10.050;2023-10-19T14:17:59;13.27;;;7.30;;
74471;SDS011;62920;53.572;10.050;2023-10-19T14:20:25;27.05;;;10.93;;
74471;SDS011;62920;53.572;10.050;2023-10-19T14:22:53;19.02;;;9.20;;
74471;SDS011;62920;53.572;10.050;2023-10-19T14:25:18;18.42;;;9.43;;
74471;SDS011;62920;53.572;10.050;2023-10-19T14:27:46;24.83;;;9.93;;
74471;SDS011;62920;53.572;10.050;2023-10-19T14:30:13;18.90;;;9.13;;
74471;SDS011;62920;53.572;10.050;2023-10-19T14:32:40;21.45;;;10.65;;
74471;SDS011;62920;53.572;10.050;2023-10-19T14:35:07;19.30;;;9.63;;
74471;SDS011;62920;53.572;10.050;2023-10-19T14:37:36;14.90;;;6.55;;
74471;SDS011;62920;53.572;10.050;2023-10-19T14:40:03;19.13;;;8.85;;
74471;SDS011;62920;53.572;10.050;2023-10-19T14:42:34;17.83;;;8.52;;
74471;SDS011;62920;53.572;10.050;2023-10-19T14:45:00;17.15;;;7.40;;
74471;SDS011;62920;53.572;10.050;2023-10-19T14:47:25;22.83;;;11.43;;
74471;SDS011;62920;53.572;10.050;2023-10-19T14:49:51;18.50;;;10.27;;
74471;SDS011;62920;53.572;10.050;2023-10-19T14:52:17;20.40;;;8.63;;
74471;SDS011;62920;53.572;10.050;2023-10-19T14:54:42;23.48;;;10.50;;
74471;SDS011;62920;53.572;10.050;2023-10-19T14:57:08;19.98;;;11.00;;